Time;durP1;ratioP1;P1;durP2;ratioP2;P2;SDS_P1;SDS_P2;PMS_P1;PMS_P2;Temp;Humidity;BMP_temperature;BMP_pressure;BME280_temperature;BME280_humidity;BME280_pressure;Samples;Min_cycle;Max_cycle;Signal;HPM_P1;HPM_P2
2022/09/22 00:01:39;;;;;;;3.35;1.85;;;10.20;99.90;;;;;;5076586;28;20102;-78
2022/09/22 00:04:08;;;;;;;2.65;2.08;;;10.10;99.90;;;;;;5073503;28;20042;-78
2022/09/22 00:06:40;;;;;;;3.88;1.92;;;10.00;99.90;;;;;;5058187;28;20032;-78
2022/09/22 00:09:10;;;;;;;5.55;2.08;;;9.90;99.90;;;;;;5083645;28;20046;-78
2022/09/22 00:11:39;;;;;;;4.15;1.77;;;9.90;99.90;;;;;;5076360;28;20137;-78
2022/09/22 00:14:11;;;;;;;2.47;1.80;;;9.90;99.90;;;;;;5068462;28;20118;-78
2022/09/22 00:16:44;;;;;;;4.43;1.65;;;9.70;99.90;;;;;;5076605;28;20040;-78
2022/09/22 00:19:14;;;;;;;2.75;1.80;;;9.70;99.90;;;;;;5081358;28;20038;-78
2022/09/22 00:21:39;;;;;;;8.63;2.03;;;9.70;99.90;;;;;;5068947;28;20046;-77
2022/09/22 00:24:06;;;;;;;42.57;3.07;;;9.70;99.90;;;;;;5072482;28;20038;-78
2022/09/22 00:26:34;;;;;;;73.75;4.30;;;9.60;99.90;;;;;;5072304;28;20653;-77
2022/09/22 00:29:00;;;;;;;26.80;2.63;;;9.60;99.90;;;;;;5069106;28;20078;-78
2022/09/22 00:31:27;;;;;;;1.95;1.55;;;9.50;99.90;;;;;;5047318;28;20046;-79
2022/09/22 00:33:54;;;;;;;2.70;1.70;;;9.40;99.90;;;;;;5051208;28;20042;-79
2022/09/22 00:36:21;;;;;;;;;;;9.30;99.90;;;;;;5068920;28;20045;-79
2022/09/22 00:38:50;;;;;;;3.55;1.83;;;9.30;99.90;;;;;;5076339;28;19965;-79
2022/09/22 00:41:19;;;;;;;3.80;1.70;;;9.30;99.90;;;;;;5079474;28;20042;-78
2022/09/22 00:43:48;;;;;;;4.10;1.70;;;9.30;99.90;;;;;;5046365;28;20141;-78
2022/09/22 00:46:27;;;;;;;2.05;1.65;;;9.40;99.90;;;;;;5054696;28;20116;-78
2022/09/22 00:49:04;;;;;;;2.70;2.00;;;9.40;99.90;;;;;;5069028;28;20054;-78
2022/09/22 00:51:33;;;;;;;2.17;1.80;;;9.50;99.90;;;;;;5057621;28;20037;-78
2022/09/22 00:54:02;;;;;;;3.42;1.90;;;9.50;99.90;;;;;;5067070;28;20060;-78
2022/09/22 00:56:43;;;;;;;4.28;2.65;;;9.80;99.90;;;;;;5067589;28;20042;-78
2022/09/22 00:59:13;;;;;;;5.22;2.72;;;9.60;99.90;;;;;;5079072;28;20067;-78
2022/09/22 01:01:39;;;;;;;5.63;2.47;;;9.60;99.90;;;;;;5066451;28;20041;-78
2022/09/22 01:04:06;;;;;;;4.93;2.75;;;9.70;99.90;;;;;;5053163;28;20483;-78
2022/09/22 01:06:32;;;;;;;;;;;9.60;99.90;;;;;;5056872;28;20070;-78
2022/09/22 01:09:00;;;;;;;5.68;2.80;;;9.70;99.90;;;;;;5082921;28;20273;-78
2022/09/22 01:11:28;;;;;;;3.25;2.20;;;9.70;99.90;;;;;;5074069;28;20070;-78
2022/09/22 01:14:15;;;;;;;3.47;2.33;;;9.80;99.90;;;;;;5066947;28;20058;-78
2022/09/22 01:17:10;;;;;;;8.40;2.70;;;9.60;99.90;;;;;;5064084;28;20073;-78
2022/09/22 01:19:41;;;;;;;4.38;2.80;;;9.60;99.90;;;;;;5072648;28;20129;-78
2022/09/22 01:22:40;;;;;;;6.07;2.67;;;9.60;99.90;;;;;;5061966;28;20050;-78
2022/09/22 01:25:25;;;;;;;6.55;2.80;;;10.20;99.90;;;;;;5073734;28;20046;-78
2022/09/22 01:28:19;;;;;;;4.47;2.70;;;9.60;99.90;;;;;;5067734;28;20046;-78
2022/09/22 01:30:50;;;;;;;4.32;2.17;;;9.50;99.90;;;;;;5065234;28;20096;-77
2022/09/22 01:33:37;;;;;;;4.20;2.22;;;9.50;99.90;;;;;;5054072;28;20037;-77
2022/09/22 01:36:19;;;;;;;4.43;2.40;;;9.50;99.90;;;;;;5070193;28;20050;-77
2022/09/22 01:38:45;;;;;;;4.80;2.80;;;9.40;99.90;;;;;;5062727;28;20077;-78
2022/09/22 01:41:41;;;;;;;5.05;2.92;;;9.40;99.90;;;;;;5076193;28;20104;-78
2022/09/22 01:44:14;;;;;;;5.47;2.78;;;9.50;99.90;;;;;;5068100;28;20046;-78
2022/09/22 01:46:50;;;;;;;5.97;2.70;;;9.40;99.90;;;;;;5064692;28;20129;-78
2022/09/22 01:49:18;;;;;;;4.57;2.60;;;9.60;99.90;;;;;;5106351;28;20052;-78
2022/09/22 01:51:58;;;;;;;5.55;2.78;;;9.40;99.90;;;;;;5062941;28;20053;-78
2022/09/22 01:54:40;;;;;;;4.25;2.80;;;9.40;99.90;;;;;;5060554;28;20054;-78
2022/09/22 01:57:21;;;;;;;5.40;3.05;;;9.40;99.90;;;;;;5063293;28;20031;-78
2022/09/22 01:59:53;;;;;;;8.90;2.58;;;9.40;99.90;;;;;;5064587;28;20118;-78
2022/09/22 02:02:28;;;;;;;8.38;3.20;;;9.30;99.90;;;;;;5071442;28;20057;-78
2022/09/22 02:04:59;;;;;;;5.82;3.20;;;9.40;99.90;;;;;;5064650;28;20042;-79
2022/09/22 02:07:32;;;;;;;6.75;3.35;;;9.40;99.90;;;;;;5067459;28;20036;-78
2022/09/22 02:10:01;;;;;;;5.13;2.80;;;9.40;99.90;;;;;;5075580;28;20061;-78
2022/09/22 02:12:28;;;;;;;5.10;2.75;;;9.30;99.90;;;;;;5062262;28;20049;-78
2022/09/22 02:14:54;;;;;;;6.68;2.85;;;9.30;99.90;;;;;;5064187;28;20050;-78
2022/09/22 02:17:19;;;;;;;4.88;3.10;;;9.40;99.90;;;;;;5059255;28;20041;-78
2022/09/22 02:19:46;;;;;;;6.22;3.63;;;9.30;99.90;;;;;;5076240;28;20084;-78
2022/09/22 02:22:12;;;;;;;3.47;2.70;;;9.30;99.90;;;;;;5086557;28;20542;-78
2022/09/22 02:24:43;;;;;;;4.85;2.53;;;9.20;99.90;;;;;;5069299;28;20039;-78
2022/09/22 02:27:24;;;;;;;4.10;2.85;;;9.20;99.90;;;;;;5083674;28;20042;-78
2022/09/22 02:30:07;;;;;;;4.45;2.03;;;9.10;99.90;;;;;;5077783;28;20514;-78
2022/09/22 02:32:34;;;;;;;3.97;2.47;;;9.10;99.90;;;;;;5072176;28;20040;-77
2022/09/22 02:35:00;;;;;;;4.97;2.65;;;9.20;99.90;;;;;;5070960;28;20042;-78
2022/09/22 02:37:54;;;;;;;6.47;3.15;;;9.00;99.90;;;;;;5068032;28;20038;-78
2022/09/22 02:40:31;;;;;;;6.38;2.90;;;9.00;99.90;;;;;;5068433;28;20121;-77
2022/09/22 02:43:11;;;;;;;4.70;2.92;;;9.00;99.90;;;;;;5063311;28;20392;-77
2022/09/22 02:46:12;;;;;;;5.95;2.90;;;8.90;99.90;;;;;;5069608;28;20091;-77
2022/09/22 02:48:51;;;;;;;5.30;3.03;;;8.90;99.90;;;;;;5044425;28;20045;-77
2022/09/22 02:51:17;;;;;;;7.97;2.70;;;8.80;99.90;;;;;;5053766;28;20060;-77
2022/09/22 02:53:43;;;;;;;7.22;3.30;;;8.80;99.90;;;;;;5072671;28;20046;-78
2022/09/22 02:56:09;;;;;;;7.05;2.80;;;9.50;99.90;;;;;;5065058;28;20052;-77
2022/09/22 02:58:35;;;;;;;5.47;2.90;;;8.90;99.90;;;;;;5052281;28;20451;-77
2022/09/22 03:01:01;;;;;;;7.32;2.42;;;8.90;99.90;;;;;;5051255;28;20034;-78
2022/09/22 03:03:27;;;;;;;6.80;2.80;;;8.90;99.90;;;;;;5073860;28;20117;-78
2022/09/22 03:05:53;;;;;;;5.73;2.63;;;8.90;99.90;;;;;;5080317;28;20133;-78
2022/09/22 03:08:18;;;;;;;6.00;2.60;;;8.90;99.90;;;;;;5063656;28;20334;-78
2022/09/22 03:10:44;;;;;;;4.17;2.30;;;9.00;99.90;;;;;;5071308;28;20057;-78
2022/09/22 03:13:10;;;;;;;5.13;2.75;;;9.00;99.90;;;;;;5082172;28;20053;-78
2022/09/22 03:15:36;;;;;;;7.17;2.60;;;9.10;99.90;;;;;;5052410;28;20046;-78
2022/09/22 03:18:02;;;;;;;9.27;2.40;;;9.10;99.90;;;;;;5080397;28;20471;-78
2022/09/22 03:20:28;;;;;;;4.68;2.55;;;9.10;99.90;;;;;;5072135;28;20056;-78
2022/09/22 03:22:54;;;;;;;3.92;2.30;;;9.10;99.90;;;;;;5075424;28;20047;-77
2022/09/22 03:25:22;;;;;;;4.90;2.40;;;9.10;99.90;;;;;;5031109;28;20058;-77
2022/09/22 03:27:48;;;;;;;6.55;2.33;;;9.40;99.90;;;;;;5055812;28;20334;-77
2022/09/22 03:30:14;;;;;;;8.03;2.57;;;9.10;99.90;;;;;;5073605;28;20121;-78
2022/09/22 03:32:40;;;;;;;6.77;2.50;;;9.20;99.90;;;;;;5053754;28;20092;-78
2022/09/22 03:35:06;;;;;;;2.83;2.08;;;9.20;99.90;;;;;;5080114;28;20091;-78
2022/09/22 03:37:33;;;;;;;3.75;2.00;;;9.10;99.90;;;;;;5079485;28;20034;-78
2022/09/22 03:39:59;;;;;;;2.47;2.03;;;9.10;99.90;;;;;;5075000;28;20121;-79
2022/09/22 03:42:25;;;;;;;3.83;2.00;;;9.00;99.90;;;;;;5062867;28;20488;-78
2022/09/22 03:44:51;;;;;;;3.57;2.00;;;9.00;99.90;;;;;;5064474;28;20046;-78
2022/09/22 03:47:16;;;;;;;3.97;2.00;;;8.90;99.90;;;;;;5068827;28;20296;-79
2022/09/22 03:49:42;;;;;;;4.47;1.98;;;8.90;99.90;;;;;;5091249;28;20087;-79
2022/09/22 03:52:08;;;;;;;5.93;2.00;;;8.80;99.90;;;;;;5072032;28;20387;-79
2022/09/22 03:54:35;;;;;;;4.30;2.50;;;8.80;99.90;;;;;;5075739;28;20304;-79
2022/09/22 03:57:02;;;;;;;2.58;2.00;;;9.00;99.90;;;;;;5070577;28;20449;-79
2022/09/22 03:59:28;;;;;;;3.80;1.70;;;8.80;99.90;;;;;;5071812;28;20042;-79
2022/09/22 04:01:55;;;;;;;4.47;1.90;;;8.70;99.90;;;;;;5077357;28;20042;-79
2022/09/22 04:04:21;;;;;;;;;;;8.70;99.90;;;;;;5068330;28;20102;-79
2022/09/22 04:06:46;;;;;;;6.88;2.30;;;8.70;99.90;;;;;;5072057;28;19921;-79
2022/09/22 04:09:16;;;;;;;3.10;1.97;;;8.70;99.90;;;;;;5050329;28;20074;-79
2022/09/22 04:11:42;;;;;;;5.72;2.30;;;8.70;99.90;;;;;;5067785;28;20285;-79
2022/09/22 04:14:08;;;;;;;4.47;2.45;;;8.80;99.90;;;;;;5049560;28;20046;-79
2022/09/22 04:16:34;;;;;;;4.47;1.98;;;8.80;99.90;;;;;;5084153;28;20042;-79
2022/09/22 04:19:03;;;;;;;3.17;2.10;;;8.80;99.90;;;;;;5048147;28;20047;-79
2022/09/22 04:21:30;;;;;;;4.93;2.00;;;9.00;99.90;;;;;;5064407;28;20296;-79
2022/09/22 04:23:56;;;;;;;4.97;2.28;;;8.70;99.90;;;;;;5068435;28;20051;-78
2022/09/22 04:26:22;;;;;;;7.10;2.20;;;8.80;99.90;;;;;;5083222;28;20048;-79
2022/09/22 04:28:47;;;;;;;4.22;2.03;;;8.80;99.90;;;;;;5076924;28;20057;-79
2022/09/22 04:31:13;;;;;;;6.30;2.03;;;8.70;99.90;;;;;;5075790;28;20419;-78
2022/09/22 04:33:39;;;;;;;7.47;2.20;;;8.70;99.90;;;;;;5078831;28;20496;-79
2022/09/22 04:36:05;;;;;;;4.20;2.15;;;8.70;99.90;;;;;;5052179;28;20042;-79
2022/09/22 04:38:31;;;;;;;3.72;2.35;;;8.70;99.90;;;;;;5060113;28;20384;-78
2022/09/22 04:40:57;;;;;;;5.50;2.07;;;8.60;99.90;;;;;;5055110;28;20129;-79
2022/09/22 04:43:22;;;;;;;3.15;1.80;;;8.80;99.90;;;;;;5065982;28;20155;-78
2022/09/22 04:45:48;;;;;;;2.78;1.92;;;8.60;99.90;;;;;;5066836;28;20042;-76
2022/09/22 04:48:15;;;;;;;2.57;1.63;;;8.60;99.90;;;;;;5065523;28;20050;-77
2022/09/22 04:50:41;;;;;;;3.65;1.88;;;8.50;99.90;;;;;;5070841;28;20766;-77
2022/09/22 04:53:07;;;;;;;4.47;2.03;;;8.80;99.90;;;;;;5081210;28;20076;-78
2022/09/22 04:55:33;;;;;;;2.95;1.80;;;8.50;99.90;;;;;;5075124;28;20038;-76
2022/09/22 04:57:58;;;;;;;3.28;2.03;;;8.40;99.90;;;;;;5055828;28;20037;-76
2022/09/22 05:00:26;;;;;;;4.00;1.87;;;8.40;99.90;;;;;;5067059;28;20471;-77
2022/09/22 05:02:52;;;;;;;2.40;1.38;;;8.40;99.90;;;;;;5076249;28;20102;-76
2022/09/22 05:05:18;;;;;;;3.85;2.00;;;8.40;99.90;;;;;;5070254;28;20050;-76
2022/09/22 05:07:46;;;;;;;3.95;2.28;;;8.40;99.90;;;;;;5067688;28;20049;-76
2022/09/22 05:10:14;;;;;;;4.07;2.50;;;8.30;99.90;;;;;;5034512;28;20050;-76
2022/09/22 05:12:40;;;;;;;5.65;2.58;;;8.30;99.90;;;;;;5059139;28;20044;-76
2022/09/22 05:15:08;;;;;;;4.38;2.85;;;8.30;99.90;;;;;;5072810;28;20175;-76
2022/09/22 05:17:35;;;;;;;6.03;2.80;;;8.30;99.90;;;;;;5069573;28;20121;-77
2022/09/22 05:20:02;;;;;;;5.72;2.53;;;8.30;99.90;;;;;;5068803;28;20034;-77
2022/09/22 05:22:28;;;;;;;5.40;3.20;;;8.30;99.90;;;;;;5076805;28;20042;-77
2022/09/22 05:24:54;;;;;;;5.33;3.17;;;8.30;99.90;;;;;;5064933;28;20187;-77
2022/09/22 05:27:19;;;;;;;6.27;3.10;;;8.30;99.90;;;;;;5054050;28;20045;-77
2022/09/22 05:29:45;;;;;;;6.47;3.17;;;8.30;99.90;;;;;;5079130;28;20033;-76
2022/09/22 05:32:11;;;;;;;5.30;3.72;;;8.30;99.90;;;;;;5050890;28;20038;-76
2022/09/22 05:34:37;;;;;;;8.23;3.60;;;8.40;99.90;;;;;;5065755;28;20039;-76
2022/09/22 05:37:03;;;;;;;7.00;3.73;;;8.30;99.90;;;;;;5069936;28;20281;-77
2022/09/22 05:39:28;;;;;;;6.72;4.05;;;8.40;99.90;;;;;;5078349;28;20030;-77
2022/09/22 05:41:54;;;;;;;7.40;3.93;;;8.40;99.90;;;;;;5059706;28;20115;-76
2022/09/22 05:44:20;;;;;;;5.33;4.17;;;8.40;99.90;;;;;;5071955;28;20106;-77
2022/09/22 05:46:46;;;;;;;8.00;3.90;;;8.40;99.90;;;;;;5078410;28;20096;-77
2022/09/22 05:49:12;;;;;;;7.53;4.40;;;8.30;99.90;;;;;;5066989;28;20077;-77
2022/09/22 05:51:38;;;;;;;8.02;4.50;;;8.40;99.90;;;;;;5071641;28;20069;-77
2022/09/22 05:54:04;;;;;;;6.70;4.17;;;8.40;99.90;;;;;;5065874;28;20096;-77
2022/09/22 05:56:30;;;;;;;6.85;4.30;;;8.50;99.90;;;;;;5076730;28;20040;-77
2022/09/22 05:58:56;;;;;;;;;;;8.50;99.90;;;;;;5059123;28;20048;-77
2022/09/22 06:01:22;;;;;;;8.93;4.30;;;8.50;99.90;;;;;;5074880;28;19921;-76
2022/09/22 06:03:47;;;;;;;6.17;4.43;;;8.50;99.90;;;;;;5052431;28;20048;-76
2022/09/22 06:06:13;;;;;;;9.73;4.87;;;9.00;99.90;;;;;;5071683;28;20038;-77
2022/09/22 06:08:40;;;;;;;8.75;4.68;;;8.60;99.90;;;;;;5074794;28;20170;-76
2022/09/22 06:11:06;;;;;;;6.25;4.50;;;8.70;99.90;;;;;;5062536;28;20051;-76
2022/09/22 06:13:32;;;;;;;6.20;4.53;;;8.80;99.90;;;;;;5072575;28;20102;-76
2022/09/22 06:16:02;;;;;;;9.00;5.43;;;8.90;99.90;;;;;;5065686;28;20042;-76
2022/09/22 06:18:29;;;;;;;9.88;4.90;;;8.90;99.90;;;;;;5065885;28;20038;-77
2022/09/22 06:20:55;;;;;;;8.10;5.00;;;8.90;99.90;;;;;;5071345;28;20042;-77
2022/09/22 06:23:21;;;;;;;9.83;5.13;;;9.00;99.90;;;;;;5063152;28;20094;-77
2022/09/22 06:25:47;;;;;;;7.32;5.25;;;9.10;99.90;;;;;;5064537;28;20290;-77
2022/09/22 06:28:13;;;;;;;8.77;5.13;;;9.30;99.90;;;;;;5049050;28;20052;-77
2022/09/22 06:30:39;;;;;;;9.15;5.43;;;9.30;99.90;;;;;;5064944;28;20083;-77
2022/09/22 06:33:06;;;;;;;7.00;5.77;;;9.60;99.90;;;;;;5049852;28;20136;-77
2022/09/22 06:35:36;;;;;;;8.02;5.25;;;9.60;99.90;;;;;;5072891;28;20324;-77
2022/09/22 06:38:04;;;;;;;9.73;5.88;;;9.70;99.90;;;;;;5067374;28;20111;-77
2022/09/22 06:40:35;;;;;;;8.82;5.28;;;10.10;99.90;;;;;;5055055;28;20049;-78
2022/09/22 06:43:10;;;;;;;7.43;5.30;;;10.00;99.90;;;;;;5064577;28;20850;-77
2022/09/22 06:45:37;;;;;;;8.13;5.78;;;10.00;99.90;;;;;;5038799;28;20042;-77
2022/09/22 06:48:03;;;;;;;7.95;4.95;;;10.20;99.90;;;;;;5070397;28;20467;-76
2022/09/22 06:50:31;;;;;;;9.50;5.75;;;10.30;99.90;;;;;;5060008;28;20034;-77
2022/09/22 06:53:10;;;;;;;10.90;5.25;;;10.50;99.90;;;;;;5060845;28;20042;-78
2022/09/22 06:55:36;;;;;;;10.25;5.70;;;10.60;99.90;;;;;;5062463;28;20100;-77
2022/09/22 06:58:02;;;;;;;8.32;5.60;;;10.80;99.90;;;;;;5033574;28;20482;-78
2022/09/22 07:00:33;;;;;;;7.20;5.15;;;10.90;99.90;;;;;;5049807;28;20404;-78
2022/09/22 07:03:25;;;;;;;8.77;5.20;;;11.10;99.90;;;;;;5064848;28;20420;-78
2022/09/22 07:05:56;;;;;;;8.10;5.65;;;11.20;99.90;;;;;;5061306;28;20050;-78
2022/09/22 07:08:23;;;;;;;8.95;5.15;;;11.50;99.90;;;;;;5078308;28;20460;-78
2022/09/22 07:10:53;;;;;;;9.52;5.80;;;11.70;99.90;;;;;;5065953;28;20042;-78
2022/09/22 07:13:23;;;;;;;9.68;6.00;;;11.90;99.90;;;;;;5076926;28;20211;-78
2022/09/22 07:15:48;;;;;;;7.20;5.20;;;12.00;99.90;;;;;;5071742;28;21717;-78
2022/09/22 07:18:14;;;;;;;6.97;5.57;;;12.20;99.90;;;;;;5065579;28;20053;-77
2022/09/22 07:20:40;;;;;;;5.63;4.78;;;12.70;99.90;;;;;;5078137;28;20032;-77
2022/09/22 07:23:15;;;;;;;7.57;5.43;;;13.50;99.90;;;;;;5068255;28;20126;-77
2022/09/22 07:25:50;;;;;;;6.47;5.07;;;14.30;99.90;;;;;;5074874;28;20513;-77
2022/09/22 07:28:16;;;;;;;6.60;4.82;;;14.90;99.90;;;;;;5060643;28;20351;-77
2022/09/22 07:30:42;;;;;;;5.50;4.50;;;15.70;99.90;;;;;;5056304;28;20034;-77
2022/09/22 07:33:07;;;;;;;5.95;4.75;;;16.30;99.90;;;;;;5062707;28;20474;-77
2022/09/22 07:35:36;;;;;;;8.02;4.47;;;16.70;99.90;;;;;;5078221;28;20433;-78
2022/09/22 07:38:03;;;;;;;6.57;4.35;;;17.00;99.90;;;;;;5058651;28;20054;-78
2022/09/22 07:40:29;;;;;;;7.28;4.15;;;17.20;99.90;;;;;;5065857;28;20081;-78
2022/09/22 07:42:55;;;;;;;6.63;4.18;;;17.60;99.90;;;;;;5072378;28;20558;-78
2022/09/22 07:45:22;;;;;;;5.93;4.20;;;18.10;99.90;;;;;;5063487;28;20121;-77
2022/09/22 07:50:32;;;;;;;6.82;4.68;;;18.70;99.90;;;;;;5059089;28;20038;-78
2022/09/22 07:52:58;;;;;;;6.25;4.40;;;18.80;99.90;;;;;;5065034;28;20046;-78
2022/09/22 07:55:24;;;;;;;7.30;4.40;;;19.40;99.90;;;;;;5070979;28;20045;-78
2022/09/22 07:57:55;;;;;;;6.20;3.92;;;19.60;99.90;;;;;;5052991;28;20526;-79
2022/09/22 08:00:22;;;;;;;5.95;4.30;;;19.90;99.90;;;;;;5073729;28;20110;-77
2022/09/22 08:02:56;;;;;;;6.15;3.88;;;20.10;99.90;;;;;;5062592;28;20121;-75
2022/09/22 08:05:23;;;;;;;5.88;4.03;;;20.10;99.90;;;;;;5066053;28;20055;-77
2022/09/22 08:07:49;;;;;;;6.95;3.75;;;20.40;99.90;;;;;;5064781;28;20042;-77
2022/09/22 08:10:16;;;;;;;8.32;3.78;;;20.80;99.90;;;;;;5069422;28;20034;-78
2022/09/22 08:12:42;;;;;;;5.45;3.78;;;20.90;99.90;;;;;;5068238;28;20508;-78
2022/09/22 08:15:09;;;;;;;7.60;3.92;;;21.30;99.90;;;;;;5067566;28;20099;-78
2022/09/22 08:17:35;;;;;;;5.45;3.70;;;21.40;99.90;;;;;;5063433;28;20053;-78
2022/09/22 08:20:02;;;;;;;5.10;3.38;;;21.40;99.80;;;;;;5070900;28;20041;-78
2022/09/22 08:22:28;;;;;;;4.38;3.60;;;21.70;98.30;;;;;;5075287;28;20179;-78
2022/09/22 08:24:53;;;;;;;5.25;3.33;;;22.10;99.20;;;;;;5065613;28;20141;-78
2022/09/22 08:27:22;;;;;;;5.28;3.63;;;22.40;98.90;;;;;;5079941;28;20052;-78
2022/09/22 08:29:48;;;;;;;8.25;3.55;;;22.40;98.20;;;;;;5075965;28;20081;-78
2022/09/22 08:32:17;;;;;;;;;;;22.80;98.50;;;;;;5077293;28;20049;-78
2022/09/22 08:34:43;;;;;;;6.32;2.97;;;22.90;96.30;;;;;;5064142;28;19996;-78
2022/09/22 08:37:09;;;;;;;5.25;2.58;;;22.70;96.40;;;;;;5068642;28;20038;-78
2022/09/22 08:39:35;;;;;;;5.88;2.70;;;23.10;96.90;;;;;;5068958;28;20490;-78
2022/09/22 08:42:08;;;;;;;;;;;23.00;96.20;;;;;;5069137;28;20042;-77
2022/09/22 08:44:43;;;;;;;4.75;2.25;;;23.30;95.80;;;;;;5063744;28;19957;-78
2022/09/22 08:51:50;;;;;;;4.45;2.38;;;23.80;95.00;;;;;;5068361;28;20501;-78
2022/09/22 08:52:54;;;;;;;4.57;2.22;;;23.60;95.70;;;;;;5070190;28;20057;-79
2022/09/22 08:55:23;;;;;;;2.95;1.95;;;24.10;94.60;;;;;;5068566;28;20053;-79
2022/09/22 08:58:26;;;;;;;3.30;1.88;;;24.50;94.50;;;;;;5052058;28;20042;-79
2022/09/22 09:01:33;;;;;;;3.65;1.98;;;24.60;93.60;;;;;;5060335;28;20073;-79
2022/09/22 09:04:09;;;;;;;4.75;2.15;;;24.40;93.50;;;;;;5048867;28;20049;-78
2022/09/22 09:06:44;;;;;;;5.22;2.35;;;24.70;94.60;;;;;;5061925;28;20117;-78
2022/09/22 09:09:34;;;;;;;3.13;2.10;;;25.00;94.10;;;;;;5057753;28;20097;-78
2022/09/22 09:12:04;;;;;;;3.83;2.20;;;25.50;93.10;;;;;;5079652;28;20128;-78
2022/09/22 09:15:08;;;;;;;4.38;2.35;;;25.50;92.60;;;;;;5074461;28;20070;-79
2022/09/22 09:17:36;;;;;;;5.22;2.35;;;25.50;92.80;;;;;;5024067;28;20118;-78
2022/09/22 09:20:16;;;;;;;4.25;2.30;;;25.10;93.00;;;;;;5076161;28;20046;-79
2022/09/22 09:22:54;;;;;;;3.47;2.40;;;25.10;92.40;;;;;;5074176;28;20046;-78
2022/09/22 09:25:33;;;;;;;5.97;2.30;;;25.40;92.30;;;;;;5063790;28;20488;-78
2022/09/22 09:28:05;;;;;;;5.68;2.25;;;25.70;92.60;;;;;;5063413;28;20108;-79
2022/09/22 09:30:52;;;;;;;6.45;2.45;;;26.00;92.40;;;;;;5060391;28;20070;-78
2022/09/22 09:33:31;;;;;;;4.20;1.70;;;26.10;91.80;;;;;;5073505;28;20052;-78
2022/09/22 09:35:57;;;;;;;3.83;2.10;;;26.00;91.80;;;;;;5066460;28;20087;-79
2022/09/22 09:38:31;;;;;;;4.28;2.25;;;26.40;92.20;;;;;;5054739;28;20034;-79
2022/09/22 09:41:16;;;;;;;3.85;1.80;;;26.20;91.90;;;;;;5067215;28;20046;-79
2022/09/22 09:43:44;;;;;;;3.88;1.90;;;26.60;91.80;;;;;;5066568;28;20498;-79
2022/09/22 09:46:23;;;;;;;5.55;1.80;;;26.60;90.80;;;;;;5079673;28;20061;-79
2022/09/22 09:49:04;;;;;;;3.15;1.50;;;26.90;90.50;;;;;;5057182;28;20128;-79
2022/09/22 09:51:34;;;;;;;4.35;1.92;;;26.80;91.20;;;;;;5069094;28;20041;-79
2022/09/22 09:54:04;;;;;;;4.03;1.30;;;27.30;91.00;;;;;;5069260;28;20521;-79
2022/09/22 09:56:31;;;;;;;2.25;1.30;;;27.70;91.00;;;;;;5063153;28;20034;-79
2022/09/22 10:01:52;;;;;;;3.30;1.30;;;27.50;90.10;;;;;;5063845;28;20105;-78
2022/09/22 10:04:34;;;;;;;3.60;1.25;;;27.30;89.90;;;;;;5062264;28;20038;-79
2022/09/22 10:07:19;;;;;;;4.45;1.48;;;27.60;88.10;;;;;;5069740;28;20048;-78
2022/09/22 10:09:48;;;;;;;4.75;1.40;;;27.90;88.40;;;;;;5061760;28;20041;-79
2022/09/22 10:12:31;;;;;;;5.50;2.30;;;27.60;89.30;;;;;;5061855;28;20483;-78
2022/09/22 10:15:00;;;;;;;4.43;2.08;;;27.60;87.10;;;;;;5065111;28;20049;-79
2022/09/22 10:17:29;;;;;;;4.00;2.03;;;28.10;88.10;;;;;;5048868;28;20034;-79
2022/09/22 10:20:25;;;;;;;5.07;2.10;;;28.30;87.00;;;;;;5076383;28;20123;-78
2022/09/22 10:22:52;;;;;;;5.25;2.03;;;28.70;86.40;;;;;;5057707;28;20053;-78
2022/09/22 10:25:26;;;;;;;4.55;2.50;;;28.40;87.10;;;;;;5055848;28;20412;-77
2022/09/22 10:28:22;;;;;;;3.75;1.90;;;28.10;85.80;;;;;;5021547;28;20049;-79
2022/09/22 10:30:59;;;;;;;5.28;2.00;;;27.80;86.60;;;;;;5070091;28;20050;-79
2022/09/22 10:33:25;;;;;;;3.60;1.65;;;28.00;86.40;;;;;;5064045;28;20122;-79
2022/09/22 10:36:09;;;;;;;5.07;1.63;;;28.40;85.20;;;;;;5048323;28;20125;-79
2022/09/22 10:38:41;;;;;;;3.47;1.60;;;28.80;85.60;;;;;;5095343;28;20045;-79
2022/09/22 10:41:20;;;;;;;4.47;1.40;;;28.80;84.30;;;;;;5062185;28;20043;-79
2022/09/22 10:43:53;;;;;;;4.05;1.70;;;29.10;84.50;;;;;;5058778;28;20126;-79
2022/09/22 10:46:31;;;;;;;3.50;1.60;;;28.70;83.30;;;;;;5075061;28;20045;-79
2022/09/22 10:49:39;;;;;;;2.97;1.50;;;29.20;84.70;;;;;;5068019;28;20141;-79
2022/09/22 10:52:38;;;;;;;2.33;1.15;;;29.20;82.80;;;;;;5015329;28;20077;-79
2022/09/22 10:55:09;;;;;;;3.00;1.27;;;28.00;83.40;;;;;;5043749;28;20110;-79
2022/09/22 10:57:50;;;;;;;4.68;1.20;;;28.20;82.50;;;;;;5065730;28;20403;-79
2022/09/22 11:00:25;;;;;;;4.07;1.15;;;27.90;82.40;;;;;;5054072;28;20468;-79
2022/09/22 11:03:18;;;;;;;2.95;1.10;;;27.60;82.40;;;;;;5069756;28;20038;-79
2022/09/22 11:12:49;;;;;;;4.45;1.90;;;27.70;83.70;;;;;;5053654;28;20074;-78
2022/09/22 11:15:24;;;;;;;2.65;1.35;;;28.40;82.20;;;;;;5059384;28;20038;-78
2022/09/22 11:18:17;;;;;;;2.03;1.13;;;28.80;80.40;;;;;;5066986;28;20074;-78
2022/09/22 11:20:47;;;;;;;3.45;1.48;;;28.60;80.20;;;;;;5054610;28;20069;-78
2022/09/22 11:23:36;;;;;;;3.97;1.63;;;28.60;81.80;;;;;;5066293;28;20065;-78
2022/09/22 11:26:17;;;;;;;5.35;1.90;;;28.90;81.40;;;;;;5065580;28;20067;-78
2022/09/22 11:28:52;;;;;;;3.40;1.63;;;28.50;81.60;;;;;;5081905;28;20042;-79
2022/09/22 11:31:49;;;;;;;3.97;2.03;;;28.40;82.00;;;;;;5073812;28;20092;-79
2022/09/22 11:34:24;;;;;;;;;;;28.20;81.20;;;;;;5074464;28;20038;-78
2022/09/22 11:37:24;;;;;;;4.35;2.33;;;28.40;81.70;;;;;;5063686;28;19964;-78
2022/09/22 11:40:13;;;;;;;3.28;1.77;;;28.70;81.50;;;;;;5075076;28;20074;-78
2022/09/22 11:42:52;;;;;;;5.45;1.98;;;29.00;80.80;;;;;;5050752;28;20058;-78
2022/09/22 11:45:56;;;;;;;4.75;2.50;;;29.30;81.40;;;;;;5071865;28;20087;-78
2022/09/22 11:48:48;;;;;;;5.75;3.33;;;29.60;81.30;;;;;;5057306;28;20038;-78
2022/09/22 11:51:47;;;;;;;6.60;3.20;;;29.60;80.80;;;;;;5067816;28;20061;-77
2022/09/22 11:54:40;;;;;;;3.80;2.33;;;29.70;79.70;;;;;;5045919;28;20050;-77
2022/09/22 11:57:10;;;;;;;4.85;2.72;;;29.30;80.70;;;;;;5066635;28;20399;-78
2022/09/22 11:59:40;;;;;;;5.55;3.30;;;29.10;80.80;;;;;;5058863;28;20074;-78
2022/09/22 12:02:26;;;;;;;5.18;2.90;;;28.40;80.80;;;;;;5067493;28;20046;-77
2022/09/22 12:05:01;;;;;;;6.10;2.80;;;28.20;81.60;;;;;;5063699;28;20049;-78
2022/09/22 12:07:36;;;;;;;4.45;2.67;;;27.60;81.50;;;;;;5068152;28;20506;-78
2022/09/22 12:10:17;;;;;;;4.95;3.03;;;27.30;81.40;;;;;;5072467;28;20121;-78
2022/09/22 12:12:47;;;;;;;4.57;2.75;;;27.90;82.10;;;;;;5064944;28;20502;-78
2022/09/22 12:15:19;;;;;;;5.90;2.85;;;27.70;81.40;;;;;;5082039;28;20080;-77
2022/09/22 12:17:53;;;;;;;3.00;2.15;;;27.60;82.20;;;;;;5051996;28;20502;-77
2022/09/22 12:20:36;;;;;;;3.30;2.20;;;27.10;83.10;;;;;;5053300;28;20069;-77
2022/09/22 12:23:22;;;;;;;4.72;2.90;;;27.00;83.90;;;;;;5073033;28;20414;-78
2022/09/22 12:25:54;;;;;;;6.25;2.60;;;26.60;82.20;;;;;;5043241;28;20381;-77
2022/09/22 12:28:28;;;;;;;6.07;2.75;;;25.80;81.80;;;;;;5050487;28;20121;-78
2022/09/22 12:31:03;;;;;;;4.80;2.83;;;25.60;83.40;;;;;;5063222;28;20034;-79
2022/09/22 12:33:35;;;;;;;3.40;2.43;;;25.30;83.90;;;;;;5060737;28;20051;-79
2022/09/22 12:36:02;;;;;;;5.30;2.58;;;25.20;84.20;;;;;;5073745;28;20042;-79
2022/09/22 12:38:30;;;;;;;4.28;2.40;;;25.40;84.30;;;;;;5062081;28;20043;-78
2022/09/22 12:40:58;;;;;;;8.48;2.67;;;25.50;86.00;;;;;;5058461;28;20121;-78
2022/09/22 12:43:26;;;;;;;5.63;2.58;;;25.90;85.20;;;;;;5089747;28;20470;-79
2022/09/22 12:45:55;;;;;;;5.75;2.88;;;26.70;84.60;;;;;;5077052;28;20046;-76
2022/09/22 12:48:28;;;;;;;4.40;2.40;;;27.50;82.60;;;;;;5064253;28;20113;-78
2022/09/22 12:51:15;;;;;;;3.90;2.30;;;27.90;81.80;;;;;;5082488;28;20050;-78
2022/09/22 12:53:43;;;;;;;4.90;2.55;;;27.40;82.10;;;;;;5066768;28;20038;-78
2022/09/22 12:56:58;;;;;;;5.05;2.47;;;27.20;81.80;;;;;;5067808;28;20046;-78
2022/09/22 12:59:35;;;;;;;5.72;2.33;;;26.40;82.10;;;;;;5000012;28;20043;-78
2022/09/22 13:02:12;;;;;;;4.50;2.30;;;25.70;83.10;;;;;;4985342;28;20087;-78
2022/09/22 13:04:38;;;;;;;;;;;25.40;84.20;;;;;;5050946;28;20134;-77
2022/09/22 13:07:34;;;;;;;4.20;2.38;;;25.00;84.90;;;;;;5054388;28;19926;-77
2022/09/22 13:10:22;;;;;;;5.63;2.80;;;25.10;84.30;;;;;;5046421;28;20183;-78
2022/09/22 13:13:00;;;;;;;3.95;2.70;;;25.10;84.30;;;;;;5047173;28;20038;-77
2022/09/22 13:15:33;;;;;;;5.93;2.97;;;25.50;84.30;;;;;;5071910;28;20077;-77
2022/09/22 13:17:58;;;;;;;6.30;2.75;;;26.10;82.90;;;;;;5064998;28;20372;-77
2022/09/22 13:20:31;;;;;;;6.40;2.83;;;25.70;83.20;;;;;;5068821;28;20083;-78
2022/09/22 13:23:14;;;;;;;4.28;2.80;;;25.50;83.30;;;;;;5062484;28;20072;-78
2022/09/22 13:25:43;;;;;;;5.95;2.95;;;25.00;83.50;;;;;;5040950;28;20062;-78
2022/09/22 13:28:08;;;;;;;5.80;2.88;;;24.70;82.80;;;;;;5071652;28;20042;-78
2022/09/22 13:30:35;;;;;;;4.68;2.80;;;24.40;82.80;;;;;;5058351;28;20073;-78
2022/09/22 13:33:01;;;;;;;5.00;3.10;;;24.50;83.70;;;;;;5077862;28;20061;-78
2022/09/22 13:35:37;;;;;;;;;;;24.50;83.50;;;;;;5064547;28;20032;-79